Strong City, Oklahoma
Current Conditions -  °F | °C
As of 6:35 PM on Saturday 20 Dec 2014 (Local Time) from KELK Reporting Station
Clear Clear  
Wind Chill: 97°   Ceiling: Unl
Heat Index: 173°   Visibility: 7mi
Dew Point: 97°   Wind: 6mph
Humidity: 100%   Direction: 160°SSE
Pressure: 30.12"   Gusts: NA
Location:  35.6401°N, 99.6878°W
Report Text: KELK 210035Z AUTO 16005KT 7SM CLR 36/36 A3012 RMK AO2
Loading
Personal Weather Stations






























Interactive Weather Map New forecast layout! Learn more

10-Day Weather Forecast

Advertisements
Track Severe Weather on mobile